Hauptseite
METAR-TAF:

METAR-TAF

Flughäfen :

Bozen, Italien

Breite: 46-28N, Länge: 011-20E, Höhe: 262 m

Beobachtung

Neuester Wetterbericht von vor 5 Stunden und 22 Minuten, um 20:50 UTC
Wind 1 kt aus unterschiedlichen Richtungen
Temperatur 23°C
Luftfeuchtigkeit 57%
Luftdruck 1016 hPa
Sichtweite 10 km oder mehr
Leicht bewölkt in der Höhe von 7000 ft

METAR: LIPB 252050Z VRB01KT 9999 FEW070 23/14 Q1016

Zeit: 04:12 (02:12 UTC)

Prognose

Neuester Wetterbericht von vor 3 Stunden und 12 Minuten, um 23:00 UTC
Gültige Prognose vom 26 um 00 UTC bis 26 um 24 UTC
Wind 5 kt aus unterschiedlichen Richtungen
Sichtweite 10 km oder mehr
Leicht bewölkt in der Höhe von 6000 ft

TAF: LIPB 252300Z 2600/2624 VRB05KT 9999 FEW060

Wetterbeobachtungen und Prognosen von mehr als 4000 Flughäfen (METAR und TAF Bericht).

Die verfügbaren Stationen werden durch gelbe und rote Markierungen auf der Karte dargestellt.

Führen Sie die Maus auf sie, um den Namen der Station zu sehen.

Darauf klicken, um die Beobachtung von Wetterbeobachtungen und Prognosen zu sehen.

Um die Karte zu ändern : klicken Sie auf den grünen Tasten mit einem schwarzen Kreuz Zum Vergrößern, auf den grünen Button mit einem Gedankenstrich zu verkleinern, oder auf die grünen Pfeile für benachbarte Karten.


METAR-TAF: